sensor_id;sensor_type;location;lat;lon;timestamp;P1;durP1;ratioP1;P2;durP2;ratioP2
66667;SDS011;57205;51.438;-2.006;2023-10-13T00:02:01;2.35;;;0.45;;
66667;SDS011;57205;51.438;-2.006;2023-10-13T00:04:30;0.95;;;0.60;;
66667;SDS011;57205;51.438;-2.006;2023-10-13T00:06:58;1.08;;;0.35;;
66667;SDS011;57205;51.438;-2.006;2023-10-13T00:09:24;1.00;;;0.50;;
66667;SDS011;57205;51.438;-2.006;2023-10-13T00:11:54;0.80;;;0.40;;
66667;SDS011;57205;51.438;-2.006;2023-10-13T00:14:21;2.40;;;1.00;;
66667;SDS011;57205;51.438;-2.006;2023-10-13T00:16:47;0.88;;;0.40;;
66667;SDS011;57205;51.438;-2.006;2023-10-13T00:19:48;1.52;;;0.55;;
66667;SDS011;57205;51.438;-2.006;2023-10-13T00:22:17;0.80;;;0.30;;
66667;SDS011;57205;51.438;-2.006;2023-10-13T00:24:47;2.63;;;0.50;;
66667;SDS011;57205;51.438;-2.006;2023-10-13T00:27:19;3.65;;;0.60;;
66667;SDS011;57205;51.438;-2.006;2023-10-13T00:29:56;1.08;;;0.35;;
66667;SDS011;57205;51.438;-2.006;2023-10-13T00:32:42;1.42;;;0.50;;
66667;SDS011;57205;51.438;-2.006;2023-10-13T00:35:17;1.98;;;0.60;;
66667;SDS011;57205;51.438;-2.006;2023-10-13T00:38:01;3.45;;;1.02;;
66667;SDS011;57205;51.438;-2.006;2023-10-13T00:40:59;3.83;;;0.90;;
66667;SDS011;57205;51.438;-2.006;2023-10-13T00:43:32;4.05;;;1.10;;
66667;SDS011;57205;51.438;-2.006;2023-10-13T00:46:00;4.30;;;1.30;;
66667;SDS011;57205;51.438;-2.006;2023-10-13T00:48:36;3.88;;;1.30;;
66667;SDS011;57205;51.438;-2.006;2023-10-13T00:51:19;6.53;;;2.03;;
66667;SDS011;57205;51.438;-2.006;2023-10-13T00:54:01;5.53;;;2.25;;
66667;SDS011;57205;51.438;-2.006;2023-10-13T00:56:32;7.93;;;2.72;;
66667;SDS011;57205;51.438;-2.006;2023-10-13T00:58:59;6.78;;;2.60;;
66667;SDS011;57205;51.438;-2.006;2023-10-13T01:01:27;8.65;;;2.80;;
66667;SDS011;57205;51.438;-2.006;2023-10-13T01:03:59;5.15;;;3.08;;
66667;SDS011;57205;51.438;-2.006;2023-10-13T01:06:28;7.05;;;2.78;;
66667;SDS011;57205;51.438;-2.006;2023-10-13T01:08:58;7.85;;;3.10;;
66667;SDS011;57205;51.438;-2.006;2023-10-13T01:11:36;8.20;;;2.95;;
66667;SDS011;57205;51.438;-2.006;2023-10-13T01:14:08;8.85;;;3.28;;
66667;SDS011;57205;51.438;-2.006;2023-10-13T01:16:36;10.55;;;3.50;;
66667;SDS011;57205;51.438;-2.006;2023-10-13T01:19:05;7.75;;;3.50;;
66667;SDS011;57205;51.438;-2.006;2023-10-13T01:21:30;6.88;;;3.83;;
66667;SDS011;57205;51.438;-2.006;2023-10-13T01:23:58;9.80;;;4.25;;
66667;SDS011;57205;51.438;-2.006;2023-10-13T01:26:24;9.70;;;3.97;;
66667;SDS011;57205;51.438;-2.006;2023-10-13T01:28:51;8.32;;;3.28;;
66667;SDS011;57205;51.438;-2.006;2023-10-13T01:31:21;11.00;;;4.15;;
66667;SDS011;57205;51.438;-2.006;2023-10-13T01:33:52;10.85;;;4.35;;
66667;SDS011;57205;51.438;-2.006;2023-10-13T01:36:24;8.38;;;4.03;;
66667;SDS011;57205;51.438;-2.006;2023-10-13T01:38:53;11.20;;;4.07;;
66667;SDS011;57205;51.438;-2.006;2023-10-13T01:41:19;12.85;;;4.10;;
66667;SDS011;57205;51.438;-2.006;2023-10-13T01:43:45;10.02;;;4.05;;
66667;SDS011;57205;51.438;-2.006;2023-10-13T01:46:11;10.07;;;4.55;;
66667;SDS011;57205;51.438;-2.006;2023-10-13T01:48:40;13.60;;;4.63;;
66667;SDS011;57205;51.438;-2.006;2023-10-13T01:51:06;8.40;;;3.70;;
66667;SDS011;57205;51.438;-2.006;2023-10-13T01:53:38;10.82;;;4.40;;
66667;SDS011;57205;51.438;-2.006;2023-10-13T01:56:05;9.75;;;4.03;;
66667;SDS011;57205;51.438;-2.006;2023-10-13T01:58:35;9.75;;;3.85;;
66667;SDS011;57205;51.438;-2.006;2023-10-13T02:01:08;8.35;;;4.10;;
66667;SDS011;57205;51.438;-2.006;2023-10-13T02:03:35;12.00;;;4.70;;
66667;SDS011;57205;51.438;-2.006;2023-10-13T02:06:06;11.35;;;5.30;;
66667;SDS011;57205;51.438;-2.006;2023-10-13T02:08:35;10.70;;;4.80;;
66667;SDS011;57205;51.438;-2.006;2023-10-13T02:11:05;12.50;;;4.47;;
66667;SDS011;57205;51.438;-2.006;2023-10-13T02:13:32;14.15;;;5.45;;
66667;SDS011;57205;51.438;-2.006;2023-10-13T02:15:57;11.88;;;4.57;;
66667;SDS011;57205;51.438;-2.006;2023-10-13T02:18:27;14.38;;;5.35;;
66667;SDS011;57205;51.438;-2.006;2023-10-13T02:20:53;14.93;;;6.15;;
66667;SDS011;57205;51.438;-2.006;2023-10-13T02:23:29;15.65;;;5.57;;
66667;SDS011;57205;51.438;-2.006;2023-10-13T02:25:55;14.93;;;5.80;;
66667;SDS011;57205;51.438;-2.006;2023-10-13T02:28:29;10.82;;;6.43;;
66667;SDS011;57205;51.438;-2.006;2023-10-13T02:31:01;13.88;;;6.15;;
66667;SDS011;57205;51.438;-2.006;2023-10-13T02:33:28;14.93;;;7.28;;
66667;SDS011;57205;51.438;-2.006;2023-10-13T02:36:02;18.05;;;7.32;;
66667;SDS011;57205;51.438;-2.006;2023-10-13T02:38:30;17.58;;;7.30;;
66667;SDS011;57205;51.438;-2.006;2023-10-13T02:41:15;19.73;;;7.53;;
66667;SDS011;57205;51.438;-2.006;2023-10-13T02:43:51;18.58;;;7.70;;
66667;SDS011;57205;51.438;-2.006;2023-10-13T02:46:18;14.70;;;7.03;;
66667;SDS011;57205;51.438;-2.006;2023-10-13T02:48:47;16.52;;;7.07;;
66667;SDS011;57205;51.438;-2.006;2023-10-13T02:51:19;13.88;;;6.80;;
66667;SDS011;57205;51.438;-2.006;2023-10-13T02:53:56;13.68;;;6.88;;
66667;SDS011;57205;51.438;-2.006;2023-10-13T02:56:28;17.25;;;6.88;;
66667;SDS011;57205;51.438;-2.006;2023-10-13T02:58:54;12.98;;;7.43;;
66667;SDS011;57205;51.438;-2.006;2023-10-13T03:01:29;16.83;;;8.57;;
66667;SDS011;57205;51.438;-2.006;2023-10-13T03:03:59;17.08;;;7.30;;
66667;SDS011;57205;51.438;-2.006;2023-10-13T03:06:26;17.02;;;8.32;;
66667;SDS011;57205;51.438;-2.006;2023-10-13T03:09:02;17.05;;;7.45;;
66667;SDS011;57205;51.438;-2.006;2023-10-13T03:11:48;20.02;;;7.95;;
66667;SDS011;57205;51.438;-2.006;2023-10-13T03:14:14;17.25;;;7.57;;
66667;SDS011;57205;51.438;-2.006;2023-10-13T03:16:53;17.05;;;8.10;;
66667;SDS011;57205;51.438;-2.006;2023-10-13T03:19:22;13.38;;;7.35;;
66667;SDS011;57205;51.438;-2.006;2023-10-13T03:21:57;18.52;;;7.07;;
66667;SDS011;57205;51.438;-2.006;2023-10-13T03:24:38;18.52;;;6.82;;
66667;SDS011;57205;51.438;-2.006;2023-10-13T03:27:10;16.63;;;7.50;;
66667;SDS011;57205;51.438;-2.006;2023-10-13T03:29:42;19.67;;;7.38;;
66667;SDS011;57205;51.438;-2.006;2023-10-13T03:32:12;12.35;;;5.97;;
66667;SDS011;57205;51.438;-2.006;2023-10-13T03:34:46;16.30;;;6.78;;
66667;SDS011;57205;51.438;-2.006;2023-10-13T03:37:22;17.70;;;7.15;;
66667;SDS011;57205;51.438;-2.006;2023-10-13T03:42:41;19.48;;;6.80;;
66667;SDS011;57205;51.438;-2.006;2023-10-13T03:45:06;13.98;;;6.60;;
66667;SDS011;57205;51.438;-2.006;2023-10-13T03:47:36;14.48;;;6.47;;
66667;SDS011;57205;51.438;-2.006;2023-10-13T03:50:04;20.15;;;7.10;;
66667;SDS011;57205;51.438;-2.006;2023-10-13T03:52:54;16.58;;;8.30;;
66667;SDS011;57205;51.438;-2.006;2023-10-13T03:55:23;22.48;;;8.18;;
66667;SDS011;57205;51.438;-2.006;2023-10-13T03:57:52;19.00;;;8.13;;
66667;SDS011;57205;51.438;-2.006;2023-10-13T04:00:22;19.10;;;8.25;;
66667;SDS011;57205;51.438;-2.006;2023-10-13T04:02:51;20.85;;;9.07;;
66667;SDS011;57205;51.438;-2.006;2023-10-13T04:05:42;17.90;;;7.72;;
66667;SDS011;57205;51.438;-2.006;2023-10-13T04:08:25;24.05;;;7.45;;
66667;SDS011;57205;51.438;-2.006;2023-10-13T04:10:55;23.50;;;7.97;;
66667;SDS011;57205;51.438;-2.006;2023-10-13T04:13:22;20.17;;;8.45;;
66667;SDS011;57205;51.438;-2.006;2023-10-13T04:16:03;18.80;;;8.13;;
66667;SDS011;57205;51.438;-2.006;2023-10-13T04:18:49;18.48;;;6.95;;
66667;SDS011;57205;51.438;-2.006;2023-10-13T04:21:23;22.67;;;7.40;;
66667;SDS011;57205;51.438;-2.006;2023-10-13T04:24:12;22.73;;;6.38;;
66667;SDS011;57205;51.438;-2.006;2023-10-13T04:26:51;23.98;;;7.15;;
66667;SDS011;57205;51.438;-2.006;2023-10-13T04:29:35;22.65;;;6.97;;
66667;SDS011;57205;51.438;-2.006;2023-10-13T04:32:13;20.27;;;7.75;;
66667;SDS011;57205;51.438;-2.006;2023-10-13T04:34:41;24.60;;;7.70;;
66667;SDS011;57205;51.438;-2.006;2023-10-13T04:37:13;21.35;;;8.15;;
66667;SDS011;57205;51.438;-2.006;2023-10-13T04:39:55;20.30;;;6.93;;
66667;SDS011;57205;51.438;-2.006;2023-10-13T04:42:36;21.60;;;7.53;;
66667;SDS011;57205;51.438;-2.006;2023-10-13T04:45:15;17.65;;;7.07;;
66667;SDS011;57205;51.438;-2.006;2023-10-13T04:47:55;18.60;;;6.53;;
66667;SDS011;57205;51.438;-2.006;2023-10-13T04:53:13;19.35;;;7.03;;
66667;SDS011;57205;51.438;-2.006;2023-10-13T04:56:12;25.20;;;6.75;;
66667;SDS011;57205;51.438;-2.006;2023-10-13T04:58:56;14.70;;;5.55;;
66667;SDS011;57205;51.438;-2.006;2023-10-13T05:01:42;16.38;;;5.28;;
66667;SDS011;57205;51.438;-2.006;2023-10-13T05:07:24;14.77;;;5.10;;
66667;SDS011;57205;51.438;-2.006;2023-10-13T05:10:08;14.23;;;5.32;;
66667;SDS011;57205;51.438;-2.006;2023-10-13T05:12:52;17.13;;;5.18;;
66667;SDS011;57205;51.438;-2.006;2023-10-13T05:15:42;16.45;;;5.15;;
66667;SDS011;57205;51.438;-2.006;2023-10-13T05:18:27;15.48;;;5.22;;
66667;SDS011;57205;51.438;-2.006;2023-10-13T05:21:11;14.90;;;4.80;;
66667;SDS011;57205;51.438;-2.006;2023-10-13T05:23:55;15.05;;;5.20;;
66667;SDS011;57205;51.438;-2.006;2023-10-13T05:26:39;17.00;;;5.55;;
66667;SDS011;57205;51.438;-2.006;2023-10-13T05:29:23;18.50;;;6.60;;
66667;SDS011;57205;51.438;-2.006;2023-10-13T05:32:06;16.77;;;6.50;;
66667;SDS011;57205;51.438;-2.006;2023-10-13T05:34:50;18.88;;;5.00;;
66667;SDS011;57205;51.438;-2.006;2023-10-13T05:37:34;15.93;;;5.20;;
66667;SDS011;57205;51.438;-2.006;2023-10-13T05:40:18;17.27;;;5.43;;
66667;SDS011;57205;51.438;-2.006;2023-10-13T05:43:03;25.20;;;5.78;;
66667;SDS011;57205;51.438;-2.006;2023-10-13T05:45:47;13.50;;;5.13;;
66667;SDS011;57205;51.438;-2.006;2023-10-13T05:48:32;19.95;;;5.60;;
66667;SDS011;57205;51.438;-2.006;2023-10-13T05:51:16;20.13;;;5.25;;
66667;SDS011;57205;51.438;-2.006;2023-10-13T05:54:00;21.23;;;5.70;;
66667;SDS011;57205;51.438;-2.006;2023-10-13T05:56:41;20.80;;;6.18;;
66667;SDS011;57205;51.438;-2.006;2023-10-13T05:59:29;20.65;;;6.28;;
66667;SDS011;57205;51.438;-2.006;2023-10-13T06:02:15;19.70;;;5.60;;
66667;SDS011;57205;51.438;-2.006;2023-10-13T06:05:03;23.13;;;6.10;;
66667;SDS011;57205;51.438;-2.006;2023-10-13T06:07:48;25.73;;;6.25;;
66667;SDS011;57205;51.438;-2.006;2023-10-13T06:10:33;21.00;;;6.53;;
66667;SDS011;57205;51.438;-2.006;2023-10-13T06:13:17;22.35;;;6.00;;
66667;SDS011;57205;51.438;-2.006;2023-10-13T06:16:05;23.23;;;6.35;;
66667;SDS011;57205;51.438;-2.006;2023-10-13T06:18:53;27.23;;;6.40;;
66667;SDS011;57205;51.438;-2.006;2023-10-13T06:21:37;28.52;;;7.25;;
66667;SDS011;57205;51.438;-2.006;2023-10-13T06:24:21;19.27;;;4.95;;
66667;SDS011;57205;51.438;-2.006;2023-10-13T06:27:05;23.17;;;6.32;;
66667;SDS011;57205;51.438;-2.006;2023-10-13T06:29:49;21.05;;;5.20;;
66667;SDS011;57205;51.438;-2.006;2023-10-13T06:32:15;20.85;;;5.60;;
66667;SDS011;57205;51.438;-2.006;2023-10-13T06:34:42;19.08;;;5.05;;
66667;SDS011;57205;51.438;-2.006;2023-10-13T06:37:14;19.92;;;5.13;;
66667;SDS011;57205;51.438;-2.006;2023-10-13T06:39:50;21.13;;;6.20;;
66667;SDS011;57205;51.438;-2.006;2023-10-13T06:42:16;22.35;;;6.25;;
66667;SDS011;57205;51.438;-2.006;2023-10-13T06:44:43;17.30;;;5.38;;
66667;SDS011;57205;51.438;-2.006;2023-10-13T06:47:12;14.68;;;5.30;;
66667;SDS011;57205;51.438;-2.006;2023-10-13T06:49:39;17.75;;;5.90;;
66667;SDS011;57205;51.438;-2.006;2023-10-13T06:52:08;20.48;;;5.43;;
66667;SDS011;57205;51.438;-2.006;2023-10-13T06:54:34;17.85;;;5.35;;
66667;SDS011;57205;51.438;-2.006;2023-10-13T06:57:01;21.08;;;6.40;;
66667;SDS011;57205;51.438;-2.006;2023-10-13T06:59:32;21.25;;;5.38;;
66667;SDS011;57205;51.438;-2.006;2023-10-13T07:02:05;11.63;;;4.32;;
66667;SDS011;57205;51.438;-2.006;2023-10-13T07:04:34;16.33;;;4.28;;
66667;SDS011;57205;51.438;-2.006;2023-10-13T07:06:59;15.18;;;3.83;;
66667;SDS011;57205;51.438;-2.006;2023-10-13T07:09:31;15.60;;;4.75;;
66667;SDS011;57205;51.438;-2.006;2023-10-13T07:11:58;21.48;;;5.60;;
66667;SDS011;57205;51.438;-2.006;2023-10-13T07:14:26;13.63;;;4.35;;
66667;SDS011;57205;51.438;-2.006;2023-10-13T07:17:02;13.93;;;5.78;;
66667;SDS011;57205;51.438;-2.006;2023-10-13T07:19:33;16.30;;;6.43;;
66667;SDS011;57205;51.438;-2.006;2023-10-13T07:22:01;14.15;;;4.32;;
66667;SDS011;57205;51.438;-2.006;2023-10-13T07:24:49;15.25;;;4.80;;
66667;SDS011;57205;51.438;-2.006;2023-10-13T07:27:19;15.38;;;4.82;;
66667;SDS011;57205;51.438;-2.006;2023-10-13T07:29:56;13.90;;;4.75;;
66667;SDS011;57205;51.438;-2.006;2023-10-13T07:32:42;15.23;;;4.97;;
66667;SDS011;57205;51.438;-2.006;2023-10-13T07:35:14;14.60;;;4.32;;
66667;SDS011;57205;51.438;-2.006;2023-10-13T07:37:46;12.95;;;4.18;;
66667;SDS011;57205;51.438;-2.006;2023-10-13T07:40:17;15.73;;;4.93;;
66667;SDS011;57205;51.438;-2.006;2023-10-13T07:42:52;18.55;;;6.47;;
66667;SDS011;57205;51.438;-2.006;2023-10-13T07:45:29;18.30;;;5.53;;
66667;SDS011;57205;51.438;-2.006;2023-10-13T07:48:01;20.02;;;6.60;;
66667;SDS011;57205;51.438;-2.006;2023-10-13T07:50:33;16.27;;;5.00;;
66667;SDS011;57205;51.438;-2.006;2023-10-13T07:53:00;17.67;;;5.68;;
66667;SDS011;57205;51.438;-2.006;2023-10-13T07:55:43;20.07;;;5.17;;
66667;SDS011;57205;51.438;-2.006;2023-10-13T07:58:10;15.85;;;5.60;;
66667;SDS011;57205;51.438;-2.006;2023-10-13T08:00:38;16.10;;;5.28;;
66667;SDS011;57205;51.438;-2.006;2023-10-13T08:03:10;19.52;;;4.13;;
66667;SDS011;57205;51.438;-2.006;2023-10-13T08:05:57;14.68;;;4.15;;
66667;SDS011;57205;51.438;-2.006;2023-10-13T08:08:44;21.42;;;7.15;;
66667;SDS011;57205;51.438;-2.006;2023-10-13T08:11:21;17.30;;;5.18;;
66667;SDS011;57205;51.438;-2.006;2023-10-13T08:13:56;16.90;;;5.47;;
66667;SDS011;57205;51.438;-2.006;2023-10-13T08:16:35;13.70;;;5.18;;
66667;SDS011;57205;51.438;-2.006;2023-10-13T08:19:13;18.02;;;5.35;;
66667;SDS011;57205;51.438;-2.006;2023-10-13T08:21:44;17.27;;;4.97;;
66667;SDS011;57205;51.438;-2.006;2023-10-13T08:24:24;12.80;;;4.50;;
66667;SDS011;57205;51.438;-2.006;2023-10-13T08:27:20;11.65;;;4.90;;
66667;SDS011;57205;51.438;-2.006;2023-10-13T08:32:54;14.48;;;4.45;;
66667;SDS011;57205;51.438;-2.006;2023-10-13T08:35:21;14.43;;;4.68;;
66667;SDS011;57205;51.438;-2.006;2023-10-13T08:38:02;9.90;;;4.03;;
66667;SDS011;57205;51.438;-2.006;2023-10-13T08:40:43;14.38;;;4.65;;
66667;SDS011;57205;51.438;-2.006;2023-10-13T08:43:31;7.28;;;3.60;;
66667;SDS011;57205;51.438;-2.006;2023-10-13T08:46:08;12.20;;;4.43;;
66667;SDS011;57205;51.438;-2.006;2023-10-13T08:48:35;10.95;;;4.38;;
66667;SDS011;57205;51.438;-2.006;2023-10-13T08:51:01;13.70;;;3.85;;
66667;SDS011;57205;51.438;-2.006;2023-10-13T08:53:38;13.32;;;4.47;;
66667;SDS011;57205;51.438;-2.006;2023-10-13T08:56:17;12.88;;;3.88;;
66667;SDS011;57205;51.438;-2.006;2023-10-13T08:58:44;10.57;;;4.45;;
66667;SDS011;57205;51.438;-2.006;2023-10-13T09:01:20;9.52;;;3.33;;
66667;SDS011;57205;51.438;-2.006;2023-10-13T09:04:12;8.52;;;3.10;;
66667;SDS011;57205;51.438;-2.006;2023-10-13T09:06:52;12.73;;;4.30;;
66667;SDS011;57205;51.438;-2.006;2023-10-13T09:14:39;12.15;;;4.05;;
66667;SDS011;57205;51.438;-2.006;2023-10-13T09:17:10;10.60;;;3.78;;
66667;SDS011;57205;51.438;-2.006;2023-10-13T09:19:45;9.68;;;2.72;;
66667;SDS011;57205;51.438;-2.006;2023-10-13T09:22:27;13.48;;;3.90;;
66667;SDS011;57205;51.438;-2.006;2023-10-13T09:25:03;13.57;;;4.03;;
66667;SDS011;57205;51.438;-2.006;2023-10-13T09:27:30;9.10;;;3.33;;
66667;SDS011;57205;51.438;-2.006;2023-10-13T09:30:02;9.95;;;3.50;;
66667;SDS011;57205;51.438;-2.006;2023-10-13T09:32:35;8.23;;;3.25;;
66667;SDS011;57205;51.438;-2.006;2023-10-13T09:35:17;7.43;;;2.42;;
66667;SDS011;57205;51.438;-2.006;2023-10-13T09:37:44;17.92;;;11.02;;
66667;SDS011;57205;51.438;-2.006;2023-10-13T09:40:16;8.98;;;3.17;;
66667;SDS011;57205;51.438;-2.006;2023-10-13T09:43:03;7.43;;;2.30;;
66667;SDS011;57205;51.438;-2.006;2023-10-13T09:45:40;10.20;;;3.20;;
66667;SDS011;57205;51.438;-2.006;2023-10-13T09:48:22;11.18;;;3.83;;
66667;SDS011;57205;51.438;-2.006;2023-10-13T09:51:05;5.57;;;2.17;;
66667;SDS011;57205;51.438;-2.006;2023-10-13T09:53:38;6.70;;;2.35;;
66667;SDS011;57205;51.438;-2.006;2023-10-13T09:56:18;5.63;;;2.20;;
66667;SDS011;57205;51.438;-2.006;2023-10-13T09:59:02;8.35;;;2.33;;
66667;SDS011;57205;51.438;-2.006;2023-10-13T10:01:40;8.07;;;2.17;;
66667;SDS011;57205;51.438;-2.006;2023-10-13T10:04:17;15.10;;;2.50;;
66667;SDS011;57205;51.438;-2.006;2023-10-13T10:09:18;8.60;;;2.58;;
66667;SDS011;57205;51.438;-2.006;2023-10-13T10:14:36;13.60;;;8.35;;
66667;SDS011;57205;51.438;-2.006;2023-10-13T10:17:11;10.80;;;3.47;;
66667;SDS011;57205;51.438;-2.006;2023-10-13T10:20:12;11.43;;;3.70;;
66667;SDS011;57205;51.438;-2.006;2023-10-13T10:22:40;11.38;;;2.90;;
66667;SDS011;57205;51.438;-2.006;2023-10-13T10:25:13;9.50;;;3.85;;
66667;SDS011;57205;51.438;-2.006;2023-10-13T10:28:00;12.45;;;2.90;;
66667;SDS011;57205;51.438;-2.006;2023-10-13T10:30:36;6.45;;;2.80;;
66667;SDS011;57205;51.438;-2.006;2023-10-13T10:33:07;8.57;;;2.97;;
66667;SDS011;57205;51.438;-2.006;2023-10-13T10:35:47;8.93;;;3.22;;
66667;SDS011;57205;51.438;-2.006;2023-10-13T10:38:23;8.13;;;2.22;;
66667;SDS011;57205;51.438;-2.006;2023-10-13T10:40:56;9.82;;;3.17;;
66667;SDS011;57205;51.438;-2.006;2023-10-13T10:45:51;7.05;;;2.67;;
66667;SDS011;57205;51.438;-2.006;2023-10-13T10:48:17;7.38;;;3.00;;
66667;SDS011;57205;51.438;-2.006;2023-10-13T10:50:55;8.63;;;4.03;;
66667;SDS011;57205;51.438;-2.006;2023-10-13T10:53:21;5.90;;;2.22;;
66667;SDS011;57205;51.438;-2.006;2023-10-13T10:55:47;9.27;;;2.90;;
66667;SDS011;57205;51.438;-2.006;2023-10-13T10:58:14;7.68;;;2.60;;
66667;SDS011;57205;51.438;-2.006;2023-10-13T11:01:06;9.02;;;3.22;;
66667;SDS011;57205;51.438;-2.006;2023-10-13T11:03:54;9.45;;;3.10;;
66667;SDS011;57205;51.438;-2.006;2023-10-13T11:06:24;9.45;;;2.75;;
66667;SDS011;57205;51.438;-2.006;2023-10-13T11:09:03;7.82;;;2.10;;
66667;SDS011;57205;51.438;-2.006;2023-10-13T11:11:32;9.77;;;2.72;;
66667;SDS011;57205;51.438;-2.006;2023-10-13T11:14:01;11.55;;;2.47;;
66667;SDS011;57205;51.438;-2.006;2023-10-13T11:16:53;10.63;;;3.50;;
66667;SDS011;57205;51.438;-2.006;2023-10-13T11:19:41;8.55;;;2.58;;
66667;SDS011;57205;51.438;-2.006;2023-10-13T11:22:15;9.00;;;2.90;;
66667;SDS011;57205;51.438;-2.006;2023-10-13T11:24:59;6.97;;;2.60;;
66667;SDS011;57205;51.438;-2.006;2023-10-13T11:27:36;7.88;;;2.65;;
66667;SDS011;57205;51.438;-2.006;2023-10-13T11:30:15;7.15;;;2.38;;
66667;SDS011;57205;51.438;-2.006;2023-10-13T11:33:05;9.13;;;2.53;;
66667;SDS011;57205;51.438;-2.006;2023-10-13T11:35:33;12.07;;;4.25;;
66667;SDS011;57205;51.438;-2.006;2023-10-13T11:38:17;9.63;;;3.17;;
66667;SDS011;57205;51.438;-2.006;2023-10-13T11:41:04;6.90;;;2.20;;
66667;SDS011;57205;51.438;-2.006;2023-10-13T11:43:31;7.13;;;2.17;;
66667;SDS011;57205;51.438;-2.006;2023-10-13T11:46:01;10.93;;;2.97;;
66667;SDS011;57205;51.438;-2.006;2023-10-13T11:48:36;13.35;;;3.20;;
66667;SDS011;57205;51.438;-2.006;2023-10-13T11:51:05;7.10;;;2.03;;
66667;SDS011;57205;51.438;-2.006;2023-10-13T11:53:32;8.07;;;2.75;;
66667;SDS011;57205;51.438;-2.006;2023-10-13T11:56:04;10.30;;;2.35;;
66667;SDS011;57205;51.438;-2.006;2023-10-13T11:58:40;7.53;;;1.90;;
66667;SDS011;57205;51.438;-2.006;2023-10-13T12:01:06;6.88;;;2.05;;
66667;SDS011;57205;51.438;-2.006;2023-10-13T12:03:37;5.93;;;2.03;;
66667;SDS011;57205;51.438;-2.006;2023-10-13T12:06:22;8.55;;;2.00;;
66667;SDS011;57205;51.438;-2.006;2023-10-13T12:09:08;13.93;;;2.55;;
66667;SDS011;57205;51.438;-2.006;2023-10-13T12:11:43;5.32;;;1.83;;
66667;SDS011;57205;51.438;-2.006;2023-10-13T12:14:14;4.88;;;1.70;;
66667;SDS011;57205;51.438;-2.006;2023-10-13T12:16:47;7.60;;;2.10;;
66667;SDS011;57205;51.438;-2.006;2023-10-13T12:19:17;7.75;;;2.00;;
66667;SDS011;57205;51.438;-2.006;2023-10-13T12:21:43;7.03;;;2.05;;
66667;SDS011;57205;51.438;-2.006;2023-10-13T12:24:09;7.95;;;2.22;;
66667;SDS011;57205;51.438;-2.006;2023-10-13T12:26:50;5.63;;;1.40;;
66667;SDS011;57205;51.438;-2.006;2023-10-13T12:29:21;5.72;;;1.52;;
66667;SDS011;57205;51.438;-2.006;2023-10-13T12:31:54;7.03;;;1.77;;
66667;SDS011;57205;51.438;-2.006;2023-10-13T12:34:34;9.10;;;1.70;;
66667;SDS011;57205;51.438;-2.006;2023-10-13T12:37:39;4.97;;;1.45;;
66667;SDS011;57205;51.438;-2.006;2023-10-13T12:40:14;6.25;;;1.52;;
66667;SDS011;57205;51.438;-2.006;2023-10-13T12:43:00;8.13;;;1.73;;
66667;SDS011;57205;51.438;-2.006;2023-10-13T12:45:45;10.20;;;4.15;;
66667;SDS011;57205;51.438;-2.006;2023-10-13T12:48:30;7.60;;;2.33;;
66667;SDS011;57205;51.438;-2.006;2023-10-13T12:51:15;8.70;;;2.03;;
66667;SDS011;57205;51.438;-2.006;2023-10-13T12:54:05;13.52;;;2.75;;
66667;SDS011;57205;51.438;-2.006;2023-10-13T12:56:44;10.68;;;2.35;;
66667;SDS011;57205;51.438;-2.006;2023-10-13T12:59:11;5.05;;;2.20;;
66667;SDS011;57205;51.438;-2.006;2023-10-13T13:01:40;8.20;;;2.40;;
66667;SDS011;57205;51.438;-2.006;2023-10-13T13:04:09;7.93;;;2.72;;
66667;SDS011;57205;51.438;-2.006;2023-10-13T13:06:50;10.63;;;2.40;;
66667;SDS011;57205;51.438;-2.006;2023-10-13T13:09:18;8.48;;;2.20;;
66667;SDS011;57205;51.438;-2.006;2023-10-13T13:11:53;7.03;;;1.70;;
66667;SDS011;57205;51.438;-2.006;2023-10-13T13:14:22;9.50;;;1.92;;
66667;SDS011;57205;51.438;-2.006;2023-10-13T13:16:54;6.15;;;1.77;;
66667;SDS011;57205;51.438;-2.006;2023-10-13T13:19:32;7.60;;;1.70;;
66667;SDS011;57205;51.438;-2.006;2023-10-13T13:22:04;11.68;;;2.70;;
66667;SDS011;57205;51.438;-2.006;2023-10-13T13:24:30;10.20;;;2.13;;
66667;SDS011;57205;51.438;-2.006;2023-10-13T13:26:57;8.85;;;2.38;;
66667;SDS011;57205;51.438;-2.006;2023-10-13T13:29:28;29.20;;;4.65;;
66667;SDS011;57205;51.438;-2.006;2023-10-13T13:31:54;7.50;;;2.00;;
66667;SDS011;57205;51.438;-2.006;2023-10-13T13:34:20;17.08;;;10.85;;
66667;SDS011;57205;51.438;-2.006;2023-10-13T13:36:46;13.32;;;5.57;;
66667;SDS011;57205;51.438;-2.006;2023-10-13T13:39:17;7.00;;;2.13;;
66667;SDS011;57205;51.438;-2.006;2023-10-13T13:41:57;5.30;;;1.63;;
66667;SDS011;57205;51.438;-2.006;2023-10-13T13:44:23;4.72;;;1.77;;
66667;SDS011;57205;51.438;-2.006;2023-10-13T13:46:57;7.45;;;1.63;;
66667;SDS011;57205;51.438;-2.006;2023-10-13T13:49:22;6.68;;;1.52;;
66667;SDS011;57205;51.438;-2.006;2023-10-13T13:51:55;9.38;;;1.75;;
66667;SDS011;57205;51.438;-2.006;2023-10-13T13:54:21;3.97;;;1.27;;
66667;SDS011;57205;51.438;-2.006;2023-10-13T13:56:47;3.50;;;1.05;;
66667;SDS011;57205;51.438;-2.006;2023-10-13T13:59:13;5.82;;;1.50;;
66667;SDS011;57205;51.438;-2.006;2023-10-13T14:01:44;6.10;;;1.38;;
66667;SDS011;57205;51.438;-2.006;2023-10-13T14:04:10;6.22;;;1.85;;
66667;SDS011;57205;51.438;-2.006;2023-10-13T14:06:36;6.97;;;1.55;;
66667;SDS011;57205;51.438;-2.006;2023-10-13T14:09:03;7.00;;;1.70;;
66667;SDS011;57205;51.438;-2.006;2023-10-13T14:11:38;6.88;;;1.80;;
66667;SDS011;57205;51.438;-2.006;2023-10-13T14:14:04;8.10;;;1.90;;
66667;SDS011;57205;51.438;-2.006;2023-10-13T14:16:52;6.60;;;1.75;;
66667;SDS011;57205;51.438;-2.006;2023-10-13T14:19:19;9.55;;;2.45;;
66667;SDS011;57205;51.438;-2.006;2023-10-13T14:21:57;9.75;;;2.50;;
66667;SDS011;57205;51.438;-2.006;2023-10-13T14:24:25;10.43;;;2.75;;
66667;SDS011;57205;51.438;-2.006;2023-10-13T14:26:58;8.50;;;2.40;;
66667;SDS011;57205;51.438;-2.006;2023-10-13T14:29:40;10.18;;;1.88;;
66667;SDS011;57205;51.438;-2.006;2023-10-13T14:32:07;15.52;;;2.72;;
66667;SDS011;57205;51.438;-2.006;2023-10-13T14:34:43;9.90;;;2.78;;
66667;SDS011;57205;51.438;-2.006;2023-10-13T14:37:10;7.43;;;2.35;;
66667;SDS011;57205;51.438;-2.006;2023-10-13T14:39:45;7.28;;;2.58;;
66667;SDS011;57205;51.438;-2.006;2023-10-13T14:42:10;5.90;;;1.50;;
66667;SDS011;57205;51.438;-2.006;2023-10-13T14:44:36;4.38;;;1.20;;
66667;SDS011;57205;51.438;-2.006;2023-10-13T14:47:02;5.90;;;1.33;;
66667;SDS011;57205;51.438;-2.006;2023-10-13T14:49:30;6.65;;;1.08;;
66667;SDS011;57205;51.438;-2.006;2023-10-13T14:51:56;8.38;;;1.42;;
66667;SDS011;57205;51.438;-2.006;2023-10-13T14:54:24;6.60;;;1.65;;
66667;SDS011;57205;51.438;-2.006;2023-10-13T14:56:59;5.97;;;1.30;;
66667;SDS011;57205;51.438;-2.006;2023-10-13T14:59:26;2.47;;;0.90;;
66667;SDS011;57205;51.438;-2.006;2023-10-13T15:01:52;3.65;;;1.02;;
66667;SDS011;57205;51.438;-2.006;2023-10-13T15:04:18;2.45;;;0.68;;
66667;SDS011;57205;51.438;-2.006;2023-10-13T15:06:49;3.42;;;0.68;;
66667;SDS011;57205;51.438;-2.006;2023-10-13T15:09:15;1.83;;;0.98;;
66667;SDS011;57205;51.438;-2.006;2023-10-13T15:11:48;4.07;;;1.20;;
66667;SDS011;57205;51.438;-2.006;2023-10-13T15:14:17;2.83;;;0.60;;
66667;SDS011;57205;51.438;-2.006;2023-10-13T15:16:45;3.00;;;0.50;;
66667;SDS011;57205;51.438;-2.006;2023-10-13T15:19:11;2.40;;;0.90;;
66667;SDS011;57205;51.438;-2.006;2023-10-13T15:21:37;2.75;;;0.90;;
66667;SDS011;57205;51.438;-2.006;2023-10-13T15:24:05;1.02;;;0.30;;
66667;SDS011;57205;51.438;-2.006;2023-10-13T15:26:52;7.53;;;4.10;;
66667;SDS011;57205;51.438;-2.006;2023-10-13T15:29:25;4.55;;;1.40;;
66667;SDS011;57205;51.438;-2.006;2023-10-13T15:31:51;10.38;;;5.20;;
66667;SDS011;57205;51.438;-2.006;2023-10-13T15:34:23;3.35;;;0.80;;